sensor_id;sensor_type;location;lat;lon;timestamp;pressure;altitude;pressure_sealevel;temperature;humidity
33845;BME280;20145;43.118;25.694;2023-04-27T00:01:22;99124.31;;;10.67;100.00
33845;BME280;20145;43.118;25.694;2023-04-27T00:03:48;99126.09;;;10.64;100.00
33845;BME280;20145;43.118;25.694;2023-04-27T00:06:13;99139.25;;;10.48;100.00
33845;BME280;20145;43.118;25.694;2023-04-27T00:08:39;99142.66;;;10.51;100.00
33845;BME280;20145;43.118;25.694;2023-04-27T00:11:04;99135.81;;;10.48;100.00
33845;BME280;20145;43.118;25.694;2023-04-27T00:13:30;99146.88;;;10.56;100.00
33845;BME280;20145;43.118;25.694;2023-04-27T00:15:55;99153.56;;;10.66;100.00
33845;BME280;20145;43.118;25.694;2023-04-27T00:18:21;99152.66;;;10.70;100.00
33845;BME280;20145;43.118;25.694;2023-04-27T00:20:47;99163.03;;;10.66;100.00
33845;BME280;20145;43.118;25.694;2023-04-27T00:23:12;99158.00;;;10.60;100.00
33845;BME280;20145;43.118;25.694;2023-04-27T00:25:38;99153.84;;;10.51;100.00
33845;BME280;20145;43.118;25.694;2023-04-27T00:28:03;99161.47;;;10.57;100.00
33845;BME280;20145;43.118;25.694;2023-04-27T00:30:29;99154.53;;;10.61;100.00
33845;BME280;20145;43.118;25.694;2023-04-27T00:32:55;99163.03;;;10.66;100.00
33845;BME280;20145;43.118;25.694;2023-04-27T00:35:20;99163.88;;;10.68;100.00
33845;BME280;20145;43.118;25.694;2023-04-27T00:37:46;99165.69;;;10.63;100.00
33845;BME280;20145;43.118;25.694;2023-04-27T00:40:12;99175.22;;;10.58;100.00
33845;BME280;20145;43.118;25.694;2023-04-27T00:42:38;99177.84;;;10.55;100.00
33845;BME280;20145;43.118;25.694;2023-04-27T00:45:03;99176.41;;;10.37;100.00
33845;BME280;20145;43.118;25.694;2023-04-27T00:47:31;99171.34;;;10.29;100.00
33845;BME280;20145;43.118;25.694;2023-04-27T00:50:02;99177.44;;;10.23;100.00
33845;BME280;20145;43.118;25.694;2023-04-27T00:52:31;99171.47;;;10.18;100.00
33845;BME280;20145;43.118;25.694;2023-04-27T00:55:04;99185.25;;;10.17;100.00
33845;BME280;20145;43.118;25.694;2023-04-27T00:57:36;99157.13;;;10.00;100.00
33845;BME280;20145;43.118;25.694;2023-04-27T01:00:05;99169.19;;;9.97;100.00
33845;BME280;20145;43.118;25.694;2023-04-27T01:02:31;99137.66;;;9.79;100.00
33845;BME280;20145;43.118;25.694;2023-04-27T01:05:01;99120.56;;;9.72;100.00
33845;BME280;20145;43.118;25.694;2023-04-27T01:07:27;99172.59;;;10.00;100.00
33845;BME280;20145;43.118;25.694;2023-04-27T01:09:52;99209.31;;;10.18;100.00
33845;BME280;20145;43.118;25.694;2023-04-27T01:12:18;99193.19;;;10.03;100.00
33845;BME280;20145;43.118;25.694;2023-04-27T01:14:44;99188.97;;;9.98;100.00
33845;BME280;20145;43.118;25.694;2023-04-27T01:17:10;99207.00;;;9.95;100.00
33845;BME280;20145;43.118;25.694;2023-04-27T01:19:36;99212.09;;;10.01;100.00
33845;BME280;20145;43.118;25.694;2023-04-27T01:22:02;99219.75;;;10.05;100.00
33845;BME280;20145;43.118;25.694;2023-04-27T01:24:28;99226.59;;;10.10;100.00
33845;BME280;20145;43.118;25.694;2023-04-27T01:26:53;99236.03;;;10.11;100.00
33845;BME280;20145;43.118;25.694;2023-04-27T01:29:19;99232.59;;;10.09;100.00
33845;BME280;20145;43.118;25.694;2023-04-27T01:31:45;99236.25;;;9.94;100.00
33845;BME280;20145;43.118;25.694;2023-04-27T01:34:11;99248.25;;;9.96;100.00
33845;BME280;20145;43.118;25.694;2023-04-27T01:36:36;99248.31;;;9.90;100.00
33845;BME280;20145;43.118;25.694;2023-04-27T01:39:02;99245.75;;;9.90;100.00
33845;BME280;20145;43.118;25.694;2023-04-27T01:41:28;99249.25;;;9.83;100.00
33845;BME280;20145;43.118;25.694;2023-04-27T01:43:54;99252.75;;;9.79;100.00
33845;BME280;20145;43.118;25.694;2023-04-27T01:46:20;99247.59;;;9.79;100.00
33845;BME280;20145;43.118;25.694;2023-04-27T01:48:45;99245.03;;;9.77;100.00
33845;BME280;20145;43.118;25.694;2023-04-27T01:51:11;99259.50;;;9.86;100.00
33845;BME280;20145;43.118;25.694;2023-04-27T01:53:36;99262.94;;;9.88;100.00
33845;BME280;20145;43.118;25.694;2023-04-27T01:56:02;99261.19;;;9.90;100.00
33845;BME280;20145;43.118;25.694;2023-04-27T01:58:27;99254.41;;;9.85;100.00
33845;BME280;20145;43.118;25.694;2023-04-27T02:00:54;99265.59;;;9.82;100.00
33845;BME280;20145;43.118;25.694;2023-04-27T02:03:19;99281.81;;;9.90;100.00
33845;BME280;20145;43.118;25.694;2023-04-27T02:05:45;99268.97;;;9.86;100.00
33845;BME280;20145;43.118;25.694;2023-04-27T02:08:12;99278.41;;;9.88;100.00
33845;BME280;20145;43.118;25.694;2023-04-27T02:10:37;99274.91;;;9.94;100.00
33845;BME280;20145;43.118;25.694;2023-04-27T02:13:03;99274.84;;;9.98;100.00
33845;BME280;20145;43.118;25.694;2023-04-27T02:15:29;99263.66;;;9.99;100.00
33845;BME280;20145;43.118;25.694;2023-04-27T02:17:54;99262.94;;;9.90;100.00
33845;BME280;20145;43.118;25.694;2023-04-27T02:20:20;99271.59;;;9.82;100.00
33845;BME280;20145;43.118;25.694;2023-04-27T02:22:45;99269.94;;;9.75;99.96
33845;BME280;20145;43.118;25.694;2023-04-27T02:25:11;99263.34;;;9.51;99.13
33845;BME280;20145;43.118;25.694;2023-04-27T02:27:37;99274.59;;;9.43;96.34
33845;BME280;20145;43.118;25.694;2023-04-27T02:30:07;99271.13;;;9.45;99.27
33845;BME280;20145;43.118;25.694;2023-04-27T02:32:33;99280.53;;;9.51;100.00
33845;BME280;20145;43.118;25.694;2023-04-27T02:35:00;99281.34;;;9.53;99.87
33845;BME280;20145;43.118;25.694;2023-04-27T02:37:26;99281.34;;;9.54;100.00
33845;BME280;20145;43.118;25.694;2023-04-27T02:39:51;99259.97;;;9.46;100.00
33845;BME280;20145;43.118;25.694;2023-04-27T02:42:17;99282.19;;;9.55;100.00
33845;BME280;20145;43.118;25.694;2023-04-27T02:44:43;99283.06;;;9.52;100.00
33845;BME280;20145;43.118;25.694;2023-04-27T02:47:09;99280.66;;;9.37;96.30
33845;BME280;20145;43.118;25.694;2023-04-27T02:49:34;99293.50;;;9.38;96.74
33845;BME280;20145;43.118;25.694;2023-04-27T02:52:00;99290.94;;;9.38;98.46
33845;BME280;20145;43.118;25.694;2023-04-27T02:54:25;99282.34;;;9.36;99.92
33845;BME280;20145;43.118;25.694;2023-04-27T02:56:51;99290.94;;;9.40;100.00
33845;BME280;20145;43.118;25.694;2023-04-27T02:59:16;99290.06;;;9.38;98.63
33845;BME280;20145;43.118;25.694;2023-04-27T03:01:42;99290.97;;;9.37;97.90
33845;BME280;20145;43.118;25.694;2023-04-27T03:04:07;99296.16;;;9.29;96.83
33845;BME280;20145;43.118;25.694;2023-04-27T03:06:33;99305.66;;;9.20;95.22
33845;BME280;20145;43.118;25.694;2023-04-27T03:08:58;99303.09;;;9.20;97.29
33845;BME280;20145;43.118;25.694;2023-04-27T03:11:24;99305.69;;;9.16;98.87
33845;BME280;20145;43.118;25.694;2023-04-27T03:13:49;99305.69;;;9.18;99.50
33845;BME280;20145;43.118;25.694;2023-04-27T03:16:15;99301.38;;;9.22;100.00
33845;BME280;20145;43.118;25.694;2023-04-27T03:18:40;99309.09;;;9.22;99.39
33845;BME280;20145;43.118;25.694;2023-04-27T03:21:10;99308.25;;;9.21;98.43
33845;BME280;20145;43.118;25.694;2023-04-27T03:23:37;99313.44;;;9.15;98.63
33845;BME280;20145;43.118;25.694;2023-04-27T03:26:10;99321.09;;;9.23;99.04
33845;BME280;20145;43.118;25.694;2023-04-27T03:28:36;99327.03;;;9.34;100.00
33845;BME280;20145;43.118;25.694;2023-04-27T03:31:06;99314.06;;;9.42;100.00
33845;BME280;20145;43.118;25.694;2023-04-27T03:33:32;99326.91;;;9.46;100.00
33845;BME280;20145;43.118;25.694;2023-04-27T03:35:58;99331.16;;;9.50;100.00
33845;BME280;20145;43.118;25.694;2023-04-27T03:38:24;99340.56;;;9.54;100.00
33845;BME280;20145;43.118;25.694;2023-04-27T03:40:51;99340.59;;;9.50;100.00
33845;BME280;20145;43.118;25.694;2023-04-27T03:43:18;99338.88;;;9.50;100.00
33845;BME280;20145;43.118;25.694;2023-04-27T03:45:44;99339.66;;;9.58;100.00
33845;BME280;20145;43.118;25.694;2023-04-27T03:48:10;99325.97;;;9.56;100.00
33845;BME280;20145;43.118;25.694;2023-04-27T03:50:35;99336.19;;;9.66;100.00
33845;BME280;20145;43.118;25.694;2023-04-27T03:53:01;99333.69;;;9.55;100.00
33845;BME280;20145;43.118;25.694;2023-04-27T03:55:26;99342.28;;;9.57;100.00
33845;BME280;20145;43.118;25.694;2023-04-27T03:57:52;99347.41;;;9.57;100.00
33845;BME280;20145;43.118;25.694;2023-04-27T04:00:18;99350.81;;;9.62;100.00
33845;BME280;20145;43.118;25.694;2023-04-27T04:02:44;99346.47;;;9.66;100.00
33845;BME280;20145;43.118;25.694;2023-04-27T04:05:10;99350.75;;;9.67;100.00
33845;BME280;20145;43.118;25.694;2023-04-27T04:07:36;99356.75;;;9.69;100.00
33845;BME280;20145;43.118;25.694;2023-04-27T04:10:02;99349.88;;;9.69;100.00
33845;BME280;20145;43.118;25.694;2023-04-27T04:12:28;99361.88;;;9.72;100.00
33845;BME280;20145;43.118;25.694;2023-04-27T04:14:54;99339.59;;;9.68;100.00
33845;BME280;20145;43.118;25.694;2023-04-27T04:17:20;99360.09;;;9.77;100.00
33845;BME280;20145;43.118;25.694;2023-04-27T04:19:46;99353.25;;;9.74;100.00
33845;BME280;20145;43.118;25.694;2023-04-27T04:22:11;99357.56;;;9.72;100.00
33845;BME280;20145;43.118;25.694;2023-04-27T04:24:37;99367.00;;;9.75;100.00
33845;BME280;20145;43.118;25.694;2023-04-27T04:27:04;99372.16;;;9.76;100.00
33845;BME280;20145;43.118;25.694;2023-04-27T04:29:30;99365.28;;;9.74;100.00
33845;BME280;20145;43.118;25.694;2023-04-27T04:31:55;99360.09;;;9.77;100.00
33845;BME280;20145;43.118;25.694;2023-04-27T04:34:21;99373.84;;;9.79;100.00
33845;BME280;20145;43.118;25.694;2023-04-27T04:36:47;99356.63;;;9.82;100.00
33845;BME280;20145;43.118;25.694;2023-04-27T04:39:18;99369.41;;;9.92;100.00
33845;BME280;20145;43.118;25.694;2023-04-27T04:41:47;99367.63;;;9.98;100.00
33845;BME280;20145;43.118;25.694;2023-04-27T04:44:16;99371.06;;;9.99;99.64
33845;BME280;20145;43.118;25.694;2023-04-27T04:46:43;99370.19;;;10.01;97.33
33845;BME280;20145;43.118;25.694;2023-04-27T04:49:08;99373.53;;;10.10;97.86
33845;BME280;20145;43.118;25.694;2023-04-27T04:51:34;99364.84;;;10.18;97.95
33845;BME280;20145;43.118;25.694;2023-04-27T04:53:59;99382.72;;;10.37;98.82
33845;BME280;20145;43.118;25.694;2023-04-27T04:56:25;99381.13;;;10.23;95.27
33845;BME280;20145;43.118;25.694;2023-04-27T04:58:51;99392.19;;;10.33;95.64
33845;BME280;20145;43.118;25.694;2023-04-27T05:01:16;99383.53;;;10.39;94.98
33845;BME280;20145;43.118;25.694;2023-04-27T05:03:42;99395.44;;;10.51;96.40
33845;BME280;20145;43.118;25.694;2023-04-27T05:06:08;99395.38;;;10.57;95.55
33845;BME280;20145;43.118;25.694;2023-04-27T05:08:34;99397.88;;;10.64;93.59
33845;BME280;20145;43.118;25.694;2023-04-27T05:11:00;99390.88;;;10.73;95.10
33845;BME280;20145;43.118;25.694;2023-04-27T05:13:25;99394.28;;;10.75;92.02
33845;BME280;20145;43.118;25.694;2023-04-27T05:15:51;99392.72;;;10.61;93.99
33845;BME280;20145;43.118;25.694;2023-04-27T05:18:17;99401.28;;;10.65;92.43
33845;BME280;20145;43.118;25.694;2023-04-27T05:20:43;99396.06;;;10.69;92.50
33845;BME280;20145;43.118;25.694;2023-04-27T05:23:08;99389.00;;;10.84;94.96
33845;BME280;20145;43.118;25.694;2023-04-27T05:25:34;99392.34;;;10.92;94.77
33845;BME280;20145;43.118;25.694;2023-04-27T05:28:09;99404.31;;;10.98;92.74
33845;BME280;20145;43.118;25.694;2023-04-27T05:30:35;99391.41;;;10.96;92.65
33845;BME280;20145;43.118;25.694;2023-04-27T05:33:04;99407.06;;;10.84;90.91
33845;BME280;20145;43.118;25.694;2023-04-27T05:35:30;99386.63;;;10.70;90.15
33845;BME280;20145;43.118;25.694;2023-04-27T05:37:57;99407.88;;;10.86;91.17
33845;BME280;20145;43.118;25.694;2023-04-27T05:40:23;99406.91;;;10.96;91.43
33845;BME280;20145;43.118;25.694;2023-04-27T05:42:48;99409.19;;;11.18;91.89
33845;BME280;20145;43.118;25.694;2023-04-27T05:45:14;99407.63;;;11.06;87.60
33845;BME280;20145;43.118;25.694;2023-04-27T05:47:40;99422.19;;;11.10;84.32
33845;BME280;20145;43.118;25.694;2023-04-27T05:50:06;99410.72;;;11.28;84.25
33845;BME280;20145;43.118;25.694;2023-04-27T05:52:32;99414.78;;;11.44;88.44
33845;BME280;20145;43.118;25.694;2023-04-27T05:54:58;99410.53;;;11.42;90.64
33845;BME280;20145;43.118;25.694;2023-04-27T05:57:24;99419.09;;;11.45;88.73
33845;BME280;20145;43.118;25.694;2023-04-27T05:59:50;99429.28;;;11.54;87.60
33845;BME280;20145;43.118;25.694;2023-04-27T06:02:17;99424.91;;;11.58;88.55
33845;BME280;20145;43.118;25.694;2023-04-27T06:04:43;99429.28;;;11.54;84.68
33845;BME280;20145;43.118;25.694;2023-04-27T06:07:09;99429.28;;;11.54;83.02
33845;BME280;20145;43.118;25.694;2023-04-27T06:09:35;99430.75;;;11.71;81.98
33845;BME280;20145;43.118;25.694;2023-04-27T06:12:02;99429.13;;;11.64;80.23
33845;BME280;20145;43.118;25.694;2023-04-27T06:14:32;99439.25;;;11.77;79.00
33845;BME280;20145;43.118;25.694;2023-04-27T06:16:58;99435.66;;;11.88;79.47
33845;BME280;20145;43.118;25.694;2023-04-27T06:19:24;99438.91;;;11.99;73.63
33845;BME280;20145;43.118;25.694;2023-04-27T06:21:52;99440.53;;;12.04;77.47
33845;BME280;20145;43.118;25.694;2023-04-27T06:24:19;99414.56;;;12.12;79.46
33845;BME280;20145;43.118;25.694;2023-04-27T06:26:44;99434.94;;;12.27;83.21
33845;BME280;20145;43.118;25.694;2023-04-27T06:29:10;99436.56;;;12.35;82.96
33845;BME280;20145;43.118;25.694;2023-04-27T06:31:36;99434.41;;;12.10;81.42
33845;BME280;20145;43.118;25.694;2023-04-27T06:34:01;99442.66;;;11.81;74.47
33845;BME280;20145;43.118;25.694;2023-04-27T06:36:28;99438.41;;;11.77;78.92
33845;BME280;20145;43.118;25.694;2023-04-27T06:38:54;99436.59;;;11.80;80.44
33845;BME280;20145;43.118;25.694;2023-04-27T06:41:23;99439.09;;;11.90;83.20
33845;BME280;20145;43.118;25.694;2023-04-27T06:43:49;99438.06;;;11.98;77.71
33845;BME280;20145;43.118;25.694;2023-04-27T06:46:15;99446.63;;;12.03;74.14
33845;BME280;20145;43.118;25.694;2023-04-27T06:48:41;99448.34;;;12.03;83.70
33845;BME280;20145;43.118;25.694;2023-04-27T06:51:06;99436.53;;;11.88;78.76
33845;BME280;20145;43.118;25.694;2023-04-27T06:53:32;99448.22;;;11.56;76.11
33845;BME280;20145;43.118;25.694;2023-04-27T06:55:58;99448.63;;;11.86;80.90
33845;BME280;20145;43.118;25.694;2023-04-27T06:58:24;99450.13;;;11.99;82.54
33845;BME280;20145;43.118;25.694;2023-04-27T07:00:49;99448.47;;;11.94;81.51
33845;BME280;20145;43.118;25.694;2023-04-27T07:03:15;99452.63;;;12.04;79.52
33845;BME280;20145;43.118;25.694;2023-04-27T07:05:41;99448.06;;;12.18;83.33
33845;BME280;20145;43.118;25.694;2023-04-27T07:08:07;99457.38;;;12.27;81.39
33845;BME280;20145;43.118;25.694;2023-04-27T07:10:32;99454.00;;;12.23;78.13
33845;BME280;20145;43.118;25.694;2023-04-27T07:12:58;99455.69;;;12.26;74.02
33845;BME280;20145;43.118;25.694;2023-04-27T07:15:24;99447.16;;;12.21;76.58
33845;BME280;20145;43.118;25.694;2023-04-27T07:17:51;99458.09;;;12.35;79.85
33845;BME280;20145;43.118;25.694;2023-04-27T07:20:18;99456.34;;;12.39;78.24
33845;BME280;20145;43.118;25.694;2023-04-27T07:22:44;99464.91;;;12.41;77.83
33845;BME280;20145;43.118;25.694;2023-04-27T07:25:09;99457.06;;;12.44;76.32
33845;BME280;20145;43.118;25.694;2023-04-27T07:27:36;99458.81;;;12.43;75.88
33845;BME280;20145;43.118;25.694;2023-04-27T07:30:03;99461.78;;;12.22;78.41
33845;BME280;20145;43.118;25.694;2023-04-27T07:32:29;99457.94;;;11.96;77.19
33845;BME280;20145;43.118;25.694;2023-04-27T07:34:55;99464.03;;;11.92;78.20
33845;BME280;20145;43.118;25.694;2023-04-27T07:37:21;99466.47;;;11.46;77.21
33845;BME280;20145;43.118;25.694;2023-04-27T07:39:48;99473.66;;;11.24;78.38
33845;BME280;20145;43.118;25.694;2023-04-27T07:42:14;99472.22;;;11.01;79.12
33845;BME280;20145;43.118;25.694;2023-04-27T07:44:40;99461.81;;;11.07;78.50
33845;BME280;20145;43.118;25.694;2023-04-27T07:47:07;99464.06;;;11.33;77.91
33845;BME280;20145;43.118;25.694;2023-04-27T07:49:34;99471.72;;;11.39;76.15
33845;BME280;20145;43.118;25.694;2023-04-27T07:51:59;99469.47;;;11.13;79.56
33845;BME280;20145;43.118;25.694;2023-04-27T07:54:25;99467.50;;;11.34;80.99
33845;BME280;20145;43.118;25.694;2023-04-27T07:56:51;99468.34;;;11.33;78.57
33845;BME280;20145;43.118;25.694;2023-04-27T07:59:17;99469.03;;;11.46;75.76
33845;BME280;20145;43.118;25.694;2023-04-27T08:01:44;99475.22;;;11.35;74.90
33845;BME280;20145;43.118;25.694;2023-04-27T08:04:10;99478.47;;;11.48;74.90
33845;BME280;20145;43.118;25.694;2023-04-27T08:06:37;99485.25;;;11.55;77.60
33845;BME280;20145;43.118;25.694;2023-04-27T08:09:03;99486.03;;;11.60;76.08
33845;BME280;20145;43.118;25.694;2023-04-27T08:11:29;99485.06;;;11.68;79.30
33845;BME280;20145;43.118;25.694;2023-04-27T08:13:55;99490.34;;;11.61;77.63
33845;BME280;20145;43.118;25.694;2023-04-27T08:16:20;99491.59;;;11.34;75.82
33845;BME280;20145;43.118;25.694;2023-04-27T08:18:46;99484.78;;;11.27;76.17
33845;BME280;20145;43.118;25.694;2023-04-27T08:21:11;99480.41;;;11.34;75.94
33845;BME280;20145;43.118;25.694;2023-04-27T08:23:37;99488.06;;;11.40;77.25
33845;BME280;20145;43.118;25.694;2023-04-27T08:26:03;99490.19;;;11.10;77.12
33845;BME280;20145;43.118;25.694;2023-04-27T08:28:28;99487.53;;;11.15;78.66
33845;BME280;20145;43.118;25.694;2023-04-27T08:30:54;99498.56;;;11.28;79.26
33845;BME280;20145;43.118;25.694;2023-04-27T08:33:20;99489.34;;;11.10;76.00
33845;BME280;20145;43.118;25.694;2023-04-27T08:35:45;99488.81;;;11.47;78.13
33845;BME280;20145;43.118;25.694;2023-04-27T08:38:11;99487.13;;;11.44;75.97
33845;BME280;20145;43.118;25.694;2023-04-27T08:40:42;99483.53;;;11.54;76.66
33845;BME280;20145;43.118;25.694;2023-04-27T08:43:07;99487.50;;;11.78;77.74
33845;BME280;20145;43.118;25.694;2023-04-27T08:45:33;99478.06;;;11.74;73.49
33845;BME280;20145;43.118;25.694;2023-04-27T08:47:59;99490.03;;;11.81;72.88
33845;BME280;20145;43.118;25.694;2023-04-27T08:50:26;99488.06;;;11.99;74.51
33845;BME280;20145;43.118;25.694;2023-04-27T08:52:52;99487.88;;;12.08;74.42
33845;BME280;20145;43.118;25.694;2023-04-27T08:55:18;99481.84;;;12.09;72.26
33845;BME280;20145;43.118;25.694;2023-04-27T08:57:57;99491.41;;;12.05;70.88
33845;BME280;20145;43.118;25.694;2023-04-27T09:00:24;99489.56;;;12.12;72.70
33845;BME280;20145;43.118;25.694;2023-04-27T09:02:50;99486.75;;;12.24;74.02
33845;BME280;20145;43.118;25.694;2023-04-27T09:05:21;99489.84;;;12.45;74.13
33845;BME280;20145;43.118;25.694;2023-04-27T09:08:03;99484.44;;;12.57;76.26
33845;BME280;20145;43.118;25.694;2023-04-27T09:10:42;99471.72;;;12.45;76.09
33845;BME280;20145;43.118;25.694;2023-04-27T09:13:07;99484.03;;;12.32;73.06
33845;BME280;20145;43.118;25.694;2023-04-27T09:15:41;99483.13;;;12.33;72.94
33845;BME280;20145;43.118;25.694;2023-04-27T09:18:14;99482.16;;;12.42;72.97
33845;BME280;20145;43.118;25.694;2023-04-27T09:20:45;99482.88;;;12.48;73.46
33845;BME280;20145;43.118;25.694;2023-04-27T09:23:24;99475.09;;;12.48;71.96
33845;BME280;20145;43.118;25.694;2023-04-27T09:25:50;99482.69;;;12.58;73.13
33845;BME280;20145;43.118;25.694;2023-04-27T09:28:16;99480.66;;;12.73;73.29
33845;BME280;20145;43.118;25.694;2023-04-27T09:30:56;99478.16;;;12.69;71.29
33845;BME280;20145;43.118;25.694;2023-04-27T09:33:24;99473.59;;;12.83;70.20
33845;BME280;20145;43.118;25.694;2023-04-27T09:35:50;99475.28;;;12.84;71.14
33845;BME280;20145;43.118;25.694;2023-04-27T09:38:18;99477.81;;;12.87;74.55
33845;BME280;20145;43.118;25.694;2023-04-27T09:40:44;99465.13;;;12.73;73.74
33845;BME280;20145;43.118;25.694;2023-04-27T09:43:10;99465.91;;;12.34;74.88
33845;BME280;20145;43.118;25.694;2023-04-27T09:45:37;99471.03;;;12.35;76.54
33845;BME280;20145;43.118;25.694;2023-04-27T09:48:04;99460.81;;;12.29;75.48
33845;BME280;20145;43.118;25.694;2023-04-27T09:50:33;99459.81;;;12.36;76.58
33845;BME280;20145;43.118;25.694;2023-04-27T09:52:59;99465.84;;;12.37;76.13
33845;BME280;20145;43.118;25.694;2023-04-27T09:55:29;99466.88;;;12.28;75.16
33845;BME280;20145;43.118;25.694;2023-04-27T09:58:05;99466.03;;;12.26;73.49
33845;BME280;20145;43.118;25.694;2023-04-27T10:03:26;99456.56;;;13.12;72.81
33845;BME280;20145;43.118;25.694;2023-04-27T10:08:35;99451.56;;;14.15;70.42
33845;BME280;20145;43.118;25.694;2023-04-27T10:11:12;99451.50;;;14.49;68.59
33845;BME280;20145;43.118;25.694;2023-04-27T10:13:50;99447.31;;;14.78;67.16
33845;BME280;20145;43.118;25.694;2023-04-27T10:16:17;99434.81;;;15.18;67.56
33845;BME280;20145;43.118;25.694;2023-04-27T10:18:53;99459.22;;;15.43;66.07
33845;BME280;20145;43.118;25.694;2023-04-27T10:21:19;99457.34;;;15.46;63.72
33845;BME280;20145;43.118;25.694;2023-04-27T10:23:50;99459.63;;;15.01;67.29
33845;BME280;20145;43.118;25.694;2023-04-27T10:26:22;99455.72;;;14.86;67.34
33845;BME280;20145;43.118;25.694;2023-04-27T10:29:05;99454.41;;;15.01;66.51
33845;BME280;20145;43.118;25.694;2023-04-27T10:31:32;99456.69;;;14.82;70.07
33845;BME280;20145;43.118;25.694;2023-04-27T10:34:14;99439.41;;;15.10;66.34
33845;BME280;20145;43.118;25.694;2023-04-27T10:36:40;99429.38;;;14.98;68.07
33845;BME280;20145;43.118;25.694;2023-04-27T10:39:16;99445.78;;;15.00;68.67
33845;BME280;20145;43.118;25.694;2023-04-27T10:41:53;99447.47;;;15.01;65.77
33845;BME280;20145;43.118;25.694;2023-04-27T10:44:26;99450.91;;;15.02;65.57
33845;BME280;20145;43.118;25.694;2023-04-27T10:46:53;99439.94;;;14.92;65.22
33845;BME280;20145;43.118;25.694;2023-04-27T10:49:21;99438.84;;;14.99;65.50
33845;BME280;20145;43.118;25.694;2023-04-27T10:51:49;99447.53;;;15.00;66.66
33845;BME280;20145;43.118;25.694;2023-04-27T10:54:15;99444.72;;;15.35;66.09
33845;BME280;20145;43.118;25.694;2023-04-27T10:56:41;99447.31;;;15.35;68.40
33845;BME280;20145;43.118;25.694;2023-04-27T10:59:08;99446.22;;;15.71;65.48
33845;BME280;20145;43.118;25.694;2023-04-27T11:01:34;99448.53;;;15.80;65.83
33845;BME280;20145;43.118;25.694;2023-04-27T11:04:01;99444.09;;;15.55;62.75
33845;BME280;20145;43.118;25.694;2023-04-27T11:06:29;99438.91;;;15.54;61.93
33845;BME280;20145;43.118;25.694;2023-04-27T11:08:55;99426.41;;;15.65;64.60
33845;BME280;20145;43.118;25.694;2023-04-27T11:11:21;99427.38;;;15.62;68.45
33845;BME280;20145;43.118;25.694;2023-04-27T11:13:48;99431.22;;;15.51;65.65
33845;BME280;20145;43.118;25.694;2023-04-27T11:16:15;99431.44;;;15.16;65.54
33845;BME280;20145;43.118;25.694;2023-04-27T11:18:41;99418.06;;;14.99;67.98
33845;BME280;20145;43.118;25.694;2023-04-27T11:21:12;99417.47;;;14.61;68.06
33845;BME280;20145;43.118;25.694;2023-04-27T11:23:38;99437.41;;;14.61;66.20
33845;BME280;20145;43.118;25.694;2023-04-27T11:26:10;99423.84;;;14.48;67.50
33845;BME280;20145;43.118;25.694;2023-04-27T11:28:37;99429.81;;;14.53;69.88
33845;BME280;20145;43.118;25.694;2023-04-27T11:31:02;99429.81;;;14.51;68.20
33845;BME280;20145;43.118;25.694;2023-04-27T11:33:31;99428.59;;;14.34;67.74
33845;BME280;20145;43.118;25.694;2023-04-27T11:35:57;99433.81;;;14.65;66.93
33845;BME280;20145;43.118;25.694;2023-04-27T11:38:23;99426.56;;;15.06;70.42
33845;BME280;20145;43.118;25.694;2023-04-27T11:41:02;99424.38;;;15.20;70.68
33845;BME280;20145;43.118;25.694;2023-04-27T11:43:28;99426.84;;;15.25;67.63
33845;BME280;20145;43.118;25.694;2023-04-27T11:45:55;99426.16;;;15.18;66.72
33845;BME280;20145;43.118;25.694;2023-04-27T11:48:24;99423.97;;;15.06;67.09
33845;BME280;20145;43.118;25.694;2023-04-27T11:50:51;99419.25;;;15.45;66.82
33845;BME280;20145;43.118;25.694;2023-04-27T11:53:28;99422.88;;;15.68;65.85
33845;BME280;20145;43.118;25.694;2023-04-27T11:55:55;99424.50;;;16.23;67.81
33845;BME280;20145;43.118;25.694;2023-04-27T11:58:20;99422.44;;;16.33;66.86
33845;BME280;20145;43.118;25.694;2023-04-27T12:00:46;99432.25;;;16.25;64.04
33845;BME280;20145;43.118;25.694;2023-04-27T12:03:11;99431.97;;;15.82;66.06
33845;BME280;20145;43.118;25.694;2023-04-27T12:05:49;99442.66;;;15.45;66.65
33845;BME280;20145;43.118;25.694;2023-04-27T12:08:16;99433.75;;;14.96;68.05
33845;BME280;20145;43.118;25.694;2023-04-27T12:10:41;99431.66;;;14.79;68.02
33845;BME280;20145;43.118;25.694;2023-04-27T12:13:07;99429.34;;;15.00;67.99
33845;BME280;20145;43.118;25.694;2023-04-27T12:15:33;99435.38;;;15.30;68.69
33845;BME280;20145;43.118;25.694;2023-04-27T12:17:58;99429.66;;;15.45;66.63
33845;BME280;20145;43.118;25.694;2023-04-27T12:20:24;99426.59;;;15.60;67.34
33845;BME280;20145;43.118;25.694;2023-04-27T12:22:49;99435.06;;;15.39;66.82
33845;BME280;20145;43.118;25.694;2023-04-27T12:25:15;99423.25;;;15.29;66.19
33845;BME280;20145;43.118;25.694;2023-04-27T12:27:42;99428.97;;;15.40;67.01
33845;BME280;20145;43.118;25.694;2023-04-27T12:30:12;99421.28;;;15.64;67.71
33845;BME280;20145;43.118;25.694;2023-04-27T12:32:39;99416.97;;;15.62;67.15
33845;BME280;20145;43.118;25.694;2023-04-27T12:35:06;99415.78;;;15.99;64.71
33845;BME280;20145;43.118;25.694;2023-04-27T12:37:31;99410.41;;;16.04;65.53
33845;BME280;20145;43.118;25.694;2023-04-27T12:39:57;99416.28;;;15.57;66.88
33845;BME280;20145;43.118;25.694;2023-04-27T12:42:23;99403.00;;;15.65;66.59
33845;BME280;20145;43.118;25.694;2023-04-27T12:44:49;99409.22;;;15.88;66.10
33845;BME280;20145;43.118;25.694;2023-04-27T12:47:16;99413.22;;;15.98;65.10
33845;BME280;20145;43.118;25.694;2023-04-27T12:49:42;99414.56;;;16.10;67.82
33845;BME280;20145;43.118;25.694;2023-04-27T12:52:07;99415.09;;;16.19;64.10
33845;BME280;20145;43.118;25.694;2023-04-27T12:54:33;99407.38;;;16.41;65.42